Airport View

Enter AWOS ICAO identifier for current METAR.

ex. KFNL

KBUU 051355Z AUTO 23006KT 10SM CLR 17/13 A3012 RMK AO2 T01730125 PWINO

5 Aug 2020 14:15

Frequency: 114.50

Phone: 262-757-0907

Other Area AWOS: K57C - KENW - KUES - KRAC

TAF KENW 051121Z 0512/0612 24005KT P6SM FEW250 FM052000 18008KT P6SM SCT050 FM060100 21004KT P6SM FEW150